sensor_id;sensor_type;location;lat;lon;timestamp;pressure;altitude;pressure_sealevel;temperature;humidity
2268;BME280;11052;43.338;25.502;2023-05-24T00:00:20;100322.38;;;14.62;100.00
2268;BME280;11052;43.338;25.502;2023-05-24T00:02:47;100318.72;;;14.66;100.00
2268;BME280;11052;43.338;25.502;2023-05-24T00:05:14;100318.44;;;14.72;100.00
2268;BME280;11052;43.338;25.502;2023-05-24T00:07:43;100324.41;;;14.74;100.00
2268;BME280;11052;43.338;25.502;2023-05-24T00:10:11;100322.81;;;14.72;100.00
2268;BME280;11052;43.338;25.502;2023-05-24T00:12:39;100319.41;;;14.70;100.00
2268;BME280;11052;43.338;25.502;2023-05-24T00:15:07;100315.34;;;14.64;100.00
2268;BME280;11052;43.338;25.502;2023-05-24T00:17:35;100314.56;;;14.62;100.00
2268;BME280;11052;43.338;25.502;2023-05-24T00:20:08;100310.31;;;14.60;100.00
2268;BME280;11052;43.338;25.502;2023-05-24T00:22:36;100310.47;;;14.57;100.00
2268;BME280;11052;43.338;25.502;2023-05-24T00:25:04;100309.84;;;14.52;100.00
2268;BME280;11052;43.338;25.502;2023-05-24T00:27:31;100304.91;;;14.46;100.00
2268;BME280;11052;43.338;25.502;2023-05-24T00:30:00;100301.63;;;14.40;100.00
2268;BME280;11052;43.338;25.502;2023-05-24T00:32:27;100299.16;;;14.37;100.00
2268;BME280;11052;43.338;25.502;2023-05-24T00:34:54;100295.84;;;14.34;100.00
2268;BME280;11052;43.338;25.502;2023-05-24T00:37:21;100287.31;;;14.30;100.00
2268;BME280;11052;43.338;25.502;2023-05-24T00:39:49;100292.59;;;14.29;100.00
2268;BME280;11052;43.338;25.502;2023-05-24T00:42:16;100295.97;;;14.12;100.00
2268;BME280;11052;43.338;25.502;2023-05-24T00:44:43;100301.34;;;13.89;100.00
2268;BME280;11052;43.338;25.502;2023-05-24T00:47:11;100295.22;;;13.90;100.00
2268;BME280;11052;43.338;25.502;2023-05-24T00:49:39;100295.13;;;13.91;100.00
2268;BME280;11052;43.338;25.502;2023-05-24T00:52:06;100290.78;;;13.92;100.00
2268;BME280;11052;43.338;25.502;2023-05-24T00:54:34;100292.59;;;13.90;100.00
2268;BME280;11052;43.338;25.502;2023-05-24T00:57:01;100300.56;;;13.87;100.00
2268;BME280;11052;43.338;25.502;2023-05-24T00:59:28;100296.06;;;13.90;100.00
2268;BME280;11052;43.338;25.502;2023-05-24T01:01:56;100300.03;;;13.99;100.00
2268;BME280;11052;43.338;25.502;2023-05-24T01:04:25;100299.38;;;13.94;100.00
2268;BME280;11052;43.338;25.502;2023-05-24T01:07:03;100299.75;;;13.86;100.00
2268;BME280;11052;43.338;25.502;2023-05-24T01:09:35;100304.38;;;13.80;100.00
2268;BME280;11052;43.338;25.502;2023-05-24T01:12:14;100297.47;;;13.78;100.00
2268;BME280;11052;43.338;25.502;2023-05-24T01:14:52;100307.94;;;13.77;100.00
2268;BME280;11052;43.338;25.502;2023-05-24T01:17:30;100313.22;;;13.75;100.00
2268;BME280;11052;43.338;25.502;2023-05-24T01:20:02;100307.03;;;13.78;100.00
2268;BME280;11052;43.338;25.502;2023-05-24T01:22:55;100315.56;;;13.82;100.00
2268;BME280;11052;43.338;25.502;2023-05-24T01:28:20;100312.50;;;13.72;100.00
2268;BME280;11052;43.338;25.502;2023-05-24T01:30:48;100306.78;;;13.64;100.00
2268;BME280;11052;43.338;25.502;2023-05-24T01:33:16;100322.53;;;13.61;100.00
2268;BME280;11052;43.338;25.502;2023-05-24T01:35:43;100318.50;;;13.54;100.00
2268;BME280;11052;43.338;25.502;2023-05-24T01:38:10;100322.13;;;13.50;100.00
2268;BME280;11052;43.338;25.502;2023-05-24T01:40:38;100317.78;;;13.50;100.00
2268;BME280;11052;43.338;25.502;2023-05-24T01:43:13;100318.81;;;13.46;100.00
2268;BME280;11052;43.338;25.502;2023-05-24T01:45:49;100319.97;;;13.39;100.00
2268;BME280;11052;43.338;25.502;2023-05-24T01:48:33;100324.59;;;13.32;100.00
2268;BME280;11052;43.338;25.502;2023-05-24T01:51:06;100320.59;;;13.24;100.00
2268;BME280;11052;43.338;25.502;2023-05-24T01:53:40;100324.06;;;13.24;100.00
2268;BME280;11052;43.338;25.502;2023-05-24T01:56:09;100324.84;;;13.26;100.00
2268;BME280;11052;43.338;25.502;2023-05-24T01:58:38;100326.78;;;13.21;100.00
2268;BME280;11052;43.338;25.502;2023-05-24T02:01:08;100330.41;;;13.17;100.00
2268;BME280;11052;43.338;25.502;2023-05-24T02:03:35;100331.53;;;13.10;100.00
2268;BME280;11052;43.338;25.502;2023-05-24T02:06:04;100327.75;;;13.19;100.00
2268;BME280;11052;43.338;25.502;2023-05-24T02:08:31;100327.00;;;13.15;100.00
2268;BME280;11052;43.338;25.502;2023-05-24T02:10:58;100327.13;;;13.12;100.00
2268;BME280;11052;43.338;25.502;2023-05-24T02:13:25;100326.44;;;13.07;100.00
2268;BME280;11052;43.338;25.502;2023-05-24T02:15:52;100326.63;;;13.02;100.00
2268;BME280;11052;43.338;25.502;2023-05-24T02:18:20;100327.13;;;13.12;100.00
2268;BME280;11052;43.338;25.502;2023-05-24T02:20:48;100322.44;;;13.00;100.00
2268;BME280;11052;43.338;25.502;2023-05-24T02:23:15;100327.03;;;12.93;100.00
2268;BME280;11052;43.338;25.502;2023-05-24T02:25:42;100327.63;;;13.00;100.00
2268;BME280;11052;43.338;25.502;2023-05-24T02:28:09;100331.91;;;13.01;100.00
2268;BME280;11052;43.338;25.502;2023-05-24T02:30:36;100333.59;;;13.02;100.00
2268;BME280;11052;43.338;25.502;2023-05-24T02:33:04;100331.75;;;12.84;100.00
2268;BME280;11052;43.338;25.502;2023-05-24T02:35:32;100335.06;;;12.87;100.00
2268;BME280;11052;43.338;25.502;2023-05-24T02:38:00;100332.34;;;12.90;100.00
2268;BME280;11052;43.338;25.502;2023-05-24T02:40:28;100333.31;;;12.88;100.00
2268;BME280;11052;43.338;25.502;2023-05-24T02:42:55;100338.25;;;12.72;100.00
2268;BME280;11052;43.338;25.502;2023-05-24T02:45:22;100334.31;;;12.62;100.00
2268;BME280;11052;43.338;25.502;2023-05-24T02:47:49;100330.81;;;12.63;100.00
2268;BME280;11052;43.338;25.502;2023-05-24T02:50:17;100340.25;;;12.65;100.00
2268;BME280;11052;43.338;25.502;2023-05-24T02:52:45;100329.66;;;12.70;100.00
2268;BME280;11052;43.338;25.502;2023-05-24T02:55:12;100330.41;;;12.73;100.00
2268;BME280;11052;43.338;25.502;2023-05-24T02:57:40;100335.47;;;12.76;100.00
2268;BME280;11052;43.338;25.502;2023-05-24T03:00:08;100335.31;;;12.81;100.00
2268;BME280;11052;43.338;25.502;2023-05-24T03:02:36;100335.44;;;12.78;100.00
2268;BME280;11052;43.338;25.502;2023-05-24T03:05:06;100324.97;;;12.79;100.00
2268;BME280;11052;43.338;25.502;2023-05-24T03:07:33;100327.84;;;12.72;100.00
2268;BME280;11052;43.338;25.502;2023-05-24T03:10:02;100328.59;;;12.75;100.00
2268;BME280;11052;43.338;25.502;2023-05-24T03:12:29;100327.63;;;12.78;100.00
2268;BME280;11052;43.338;25.502;2023-05-24T03:14:56;100330.00;;;12.61;100.00
2268;BME280;11052;43.338;25.502;2023-05-24T03:17:23;100326.69;;;12.57;100.00
2268;BME280;11052;43.338;25.502;2023-05-24T03:19:51;100330.34;;;12.52;100.00
2268;BME280;11052;43.338;25.502;2023-05-24T03:22:18;100334.59;;;12.54;100.00
2268;BME280;11052;43.338;25.502;2023-05-24T03:24:45;100332.66;;;12.59;100.00
2268;BME280;11052;43.338;25.502;2023-05-24T03:27:14;100332.56;;;12.62;100.00
2268;BME280;11052;43.338;25.502;2023-05-24T03:29:41;100333.47;;;12.61;100.00
2268;BME280;11052;43.338;25.502;2023-05-24T03:32:08;100342.97;;;12.62;100.00
2268;BME280;11052;43.338;25.502;2023-05-24T03:34:35;100342.22;;;12.59;100.00
2268;BME280;11052;43.338;25.502;2023-05-24T03:37:03;100342.13;;;12.62;100.00
2268;BME280;11052;43.338;25.502;2023-05-24T03:39:30;100347.09;;;12.68;100.00
2268;BME280;11052;43.338;25.502;2023-05-24T03:41:57;100356.22;;;12.78;100.00
2268;BME280;11052;43.338;25.502;2023-05-24T03:44:26;100351.59;;;12.86;100.00
2268;BME280;11052;43.338;25.502;2023-05-24T03:46:53;100359.16;;;12.92;100.00
2268;BME280;11052;43.338;25.502;2023-05-24T03:49:20;100360.78;;;12.95;100.00
2268;BME280;11052;43.338;25.502;2023-05-24T03:51:47;100359.56;;;13.03;100.00
2268;BME280;11052;43.338;25.502;2023-05-24T03:54:14;100363.63;;;13.10;100.00
2268;BME280;11052;43.338;25.502;2023-05-24T03:56:42;100363.44;;;13.15;100.00
2268;BME280;11052;43.338;25.502;2023-05-24T03:59:10;100360.50;;;13.24;100.00
2268;BME280;11052;43.338;25.502;2023-05-24T04:01:38;100360.91;;;13.35;100.00
2268;BME280;11052;43.338;25.502;2023-05-24T04:04:05;100359.44;;;13.50;100.00
2268;BME280;11052;43.338;25.502;2023-05-24T04:06:32;100356.34;;;13.62;100.00
2268;BME280;11052;43.338;25.502;2023-05-24T04:09:01;100368.72;;;13.77;100.00
2268;BME280;11052;43.338;25.502;2023-05-24T04:11:30;100367.41;;;13.88;100.00
2268;BME280;11052;43.338;25.502;2023-05-24T04:13:57;100371.03;;;14.04;100.00
2268;BME280;11052;43.338;25.502;2023-05-24T04:16:26;100358.38;;;14.15;100.00
2268;BME280;11052;43.338;25.502;2023-05-24T04:18:56;100367.88;;;14.36;100.00
2268;BME280;11052;43.338;25.502;2023-05-24T04:21:24;100366.81;;;14.61;100.00
2268;BME280;11052;43.338;25.502;2023-05-24T04:23:52;100370.03;;;14.85;100.00
2268;BME280;11052;43.338;25.502;2023-05-24T04:26:20;100370.16;;;15.00;100.00
2268;BME280;11052;43.338;25.502;2023-05-24T04:28:47;100373.53;;;15.21;100.00
2268;BME280;11052;43.338;25.502;2023-05-24T04:31:14;100366.50;;;15.40;100.00
2268;BME280;11052;43.338;25.502;2023-05-24T04:33:42;100369.75;;;15.63;100.00
2268;BME280;11052;43.338;25.502;2023-05-24T04:36:10;100368.34;;;16.08;100.00
2268;BME280;11052;43.338;25.502;2023-05-24T04:38:38;100371.28;;;16.50;100.00
2268;BME280;11052;43.338;25.502;2023-05-24T04:41:05;100373.06;;;16.98;100.00
2268;BME280;11052;43.338;25.502;2023-05-24T04:43:33;100375.03;;;17.41;100.00
2268;BME280;11052;43.338;25.502;2023-05-24T04:46:00;100375.44;;;17.49;100.00
2268;BME280;11052;43.338;25.502;2023-05-24T04:48:27;100374.22;;;17.70;100.00
2268;BME280;11052;43.338;25.502;2023-05-24T04:50:55;100378.44;;;18.02;100.00
2268;BME280;11052;43.338;25.502;2023-05-24T04:53:24;100381.81;;;18.47;100.00
2268;BME280;11052;43.338;25.502;2023-05-24T04:55:51;100381.84;;;18.61;100.00
2268;BME280;11052;43.338;25.502;2023-05-24T04:58:19;100382.38;;;18.66;100.00
2268;BME280;11052;43.338;25.502;2023-05-24T05:00:46;100382.94;;;18.86;100.00
2268;BME280;11052;43.338;25.502;2023-05-24T05:03:13;100387.59;;;18.95;100.00
2268;BME280;11052;43.338;25.502;2023-05-24T05:05:41;100394.09;;;19.16;100.00
2268;BME280;11052;43.338;25.502;2023-05-24T05:08:09;100397.78;;;19.68;100.00
2268;BME280;11052;43.338;25.502;2023-05-24T05:10:41;100397.09;;;20.29;100.00
2268;BME280;11052;43.338;25.502;2023-05-24T05:13:08;100398.28;;;20.50;100.00
2268;BME280;11052;43.338;25.502;2023-05-24T05:15:35;100396.63;;;20.86;100.00
2268;BME280;11052;43.338;25.502;2023-05-24T05:18:02;100396.44;;;21.13;100.00
2268;BME280;11052;43.338;25.502;2023-05-24T05:20:29;100400.13;;;21.47;100.00
2268;BME280;11052;43.338;25.502;2023-05-24T05:22:57;100394.06;;;21.69;100.00
2268;BME280;11052;43.338;25.502;2023-05-24T05:25:24;100409.41;;;21.99;100.00
2268;BME280;11052;43.338;25.502;2023-05-24T05:27:52;100413.69;;;22.12;100.00
2268;BME280;11052;43.338;25.502;2023-05-24T05:30:21;100416.81;;;22.17;100.00
2268;BME280;11052;43.338;25.502;2023-05-24T05:32:48;100413.56;;;22.25;100.00
2268;BME280;11052;43.338;25.502;2023-05-24T05:35:18;100423.09;;;22.39;100.00
2268;BME280;11052;43.338;25.502;2023-05-24T05:37:46;100417.22;;;22.46;100.00
2268;BME280;11052;43.338;25.502;2023-05-24T05:40:13;100418.66;;;22.39;100.00
2268;BME280;11052;43.338;25.502;2023-05-24T05:42:40;100417.56;;;22.42;100.00
2268;BME280;11052;43.338;25.502;2023-05-24T05:45:09;100416.13;;;22.49;100.00
2268;BME280;11052;43.338;25.502;2023-05-24T05:47:37;100418.41;;;22.42;100.00
2268;BME280;11052;43.338;25.502;2023-05-24T05:50:04;100418.50;;;22.63;100.00
2268;BME280;11052;43.338;25.502;2023-05-24T05:52:32;100419.59;;;22.94;100.00
2268;BME280;11052;43.338;25.502;2023-05-24T05:54:59;100421.47;;;23.26;100.00
2268;BME280;11052;43.338;25.502;2023-05-24T05:57:26;100423.91;;;23.49;100.00
2268;BME280;11052;43.338;25.502;2023-05-24T05:59:53;100420.38;;;23.92;100.00
2268;BME280;11052;43.338;25.502;2023-05-24T06:02:22;100413.34;;;24.02;100.00
2268;BME280;11052;43.338;25.502;2023-05-24T06:04:49;100426.91;;;24.09;100.00
2268;BME280;11052;43.338;25.502;2023-05-24T06:07:19;100423.00;;;24.55;100.00
2268;BME280;11052;43.338;25.502;2023-05-24T06:09:46;100425.94;;;24.92;100.00
2268;BME280;11052;43.338;25.502;2023-05-24T06:12:13;100427.44;;;24.84;100.00
2268;BME280;11052;43.338;25.502;2023-05-24T06:14:40;100422.59;;;24.59;100.00
2268;BME280;11052;43.338;25.502;2023-05-24T06:17:07;100426.50;;;24.34;100.00
2268;BME280;11052;43.338;25.502;2023-05-24T06:19:37;100429.66;;;24.49;100.00
2268;BME280;11052;43.338;25.502;2023-05-24T06:22:04;100420.94;;;24.37;100.00
2268;BME280;11052;43.338;25.502;2023-05-24T06:24:31;100421.28;;;24.74;100.00
2268;BME280;11052;43.338;25.502;2023-05-24T06:26:59;100418.06;;;25.21;100.00
2268;BME280;11052;43.338;25.502;2023-05-24T06:29:27;100419.94;;;25.68;100.00
2268;BME280;11052;43.338;25.502;2023-05-24T06:31:54;100420.47;;;26.01;100.00
2268;BME280;11052;43.338;25.502;2023-05-24T06:34:21;100416.59;;;25.76;100.00
2268;BME280;11052;43.338;25.502;2023-05-24T06:36:49;100422.16;;;25.63;100.00
2268;BME280;11052;43.338;25.502;2023-05-24T06:39:17;100419.38;;;25.74;100.00
2268;BME280;11052;43.338;25.502;2023-05-24T06:41:45;100414.50;;;26.45;100.00
2268;BME280;11052;43.338;25.502;2023-05-24T06:44:15;100417.91;;;26.93;100.00
2268;BME280;11052;43.338;25.502;2023-05-24T06:46:42;100420.22;;;27.33;97.74
2268;BME280;11052;43.338;25.502;2023-05-24T06:49:11;100417.34;;;27.44;89.50
2268;BME280;11052;43.338;25.502;2023-05-24T06:51:38;100416.94;;;26.66;94.22
2268;BME280;11052;43.338;25.502;2023-05-24T06:54:06;100410.50;;;26.69;88.16
2268;BME280;11052;43.338;25.502;2023-05-24T06:56:34;100411.69;;;26.47;90.84
2268;BME280;11052;43.338;25.502;2023-05-24T06:59:01;100413.41;;;26.38;91.80
2268;BME280;11052;43.338;25.502;2023-05-24T07:01:28;100412.09;;;25.96;90.36
2268;BME280;11052;43.338;25.502;2023-05-24T07:03:55;100411.63;;;26.10;92.31
2268;BME280;11052;43.338;25.502;2023-05-24T07:06:22;100414.56;;;26.17;90.79
2268;BME280;11052;43.338;25.502;2023-05-24T07:08:50;100412.28;;;26.41;92.08
2268;BME280;11052;43.338;25.502;2023-05-24T07:11:20;100408.81;;;26.68;87.50
2268;BME280;11052;43.338;25.502;2023-05-24T07:13:47;100404.31;;;26.78;86.84
2268;BME280;11052;43.338;25.502;2023-05-24T07:16:15;100419.28;;;26.79;83.56
2268;BME280;11052;43.338;25.502;2023-05-24T07:18:42;100417.00;;;26.84;85.76
2268;BME280;11052;43.338;25.502;2023-05-24T07:21:09;100413.50;;;27.11;85.38
2268;BME280;11052;43.338;25.502;2023-05-24T07:23:36;100418.72;;;27.48;84.87
2268;BME280;11052;43.338;25.502;2023-05-24T07:26:03;100417.59;;;27.68;82.26
2268;BME280;11052;43.338;25.502;2023-05-24T07:28:32;100416.72;;;27.86;82.66
2268;BME280;11052;43.338;25.502;2023-05-24T07:31:02;100417.56;;;27.86;81.81
2268;BME280;11052;43.338;25.502;2023-05-24T07:33:29;100420.50;;;28.01;79.32
2268;BME280;11052;43.338;25.502;2023-05-24T07:35:57;100419.13;;;27.71;76.62
2268;BME280;11052;43.338;25.502;2023-05-24T07:38:24;100422.34;;;28.00;75.87
2268;BME280;11052;43.338;25.502;2023-05-24T07:40:51;100423.94;;;27.67;76.91
2268;BME280;11052;43.338;25.502;2023-05-24T07:43:18;100418.03;;;27.82;78.35
2268;BME280;11052;43.338;25.502;2023-05-24T07:45:47;100416.72;;;27.86;80.78
2268;BME280;11052;43.338;25.502;2023-05-24T07:48:14;100418.56;;;28.55;79.12
2268;BME280;11052;43.338;25.502;2023-05-24T07:50:41;100412.41;;;29.04;75.14
2268;BME280;11052;43.338;25.502;2023-05-24T07:53:13;100415.66;;;29.32;70.75
2268;BME280;11052;43.338;25.502;2023-05-24T07:55:40;100414.72;;;28.91;67.05
2268;BME280;11052;43.338;25.502;2023-05-24T07:58:08;100418.03;;;28.25;66.26
2268;BME280;11052;43.338;25.502;2023-05-24T08:00:35;100418.72;;;27.48;66.99
2268;BME280;11052;43.338;25.502;2023-05-24T08:03:05;100420.75;;;27.36;67.05
2268;BME280;11052;43.338;25.502;2023-05-24T08:05:32;100424.44;;;27.53;67.47
2268;BME280;11052;43.338;25.502;2023-05-24T08:07:59;100426.16;;;27.27;67.09
2268;BME280;11052;43.338;25.502;2023-05-24T08:10:27;100426.03;;;27.46;64.90
2268;BME280;11052;43.338;25.502;2023-05-24T08:12:54;100412.75;;;27.90;66.75
2268;BME280;11052;43.338;25.502;2023-05-24T08:15:21;100420.97;;;27.96;62.16
2268;BME280;11052;43.338;25.502;2023-05-24T08:17:48;100424.72;;;27.86;58.26
2268;BME280;11052;43.338;25.502;2023-05-24T08:20:17;100426.63;;;27.75;60.87
2268;BME280;11052;43.338;25.502;2023-05-24T08:22:44;100428.00;;;27.80;62.31
2268;BME280;11052;43.338;25.502;2023-05-24T08:25:12;100426.41;;;28.30;59.86
2268;BME280;11052;43.338;25.502;2023-05-24T08:27:40;100423.31;;;27.99;56.52
2268;BME280;11052;43.338;25.502;2023-05-24T08:30:08;100421.50;;;28.44;57.11
2268;BME280;11052;43.338;25.502;2023-05-24T08:32:35;100430.56;;;28.59;58.07
2268;BME280;11052;43.338;25.502;2023-05-24T08:35:03;100421.06;;;28.98;54.29
2268;BME280;11052;43.338;25.502;2023-05-24T08:37:31;100417.03;;;28.86;53.27
2268;BME280;11052;43.338;25.502;2023-05-24T08:39:58;100421.41;;;28.95;54.29
2268;BME280;11052;43.338;25.502;2023-05-24T08:42:27;100424.78;;;29.14;59.73
2268;BME280;11052;43.338;25.502;2023-05-24T08:45:00;100431.19;;;29.37;58.19
2268;BME280;11052;43.338;25.502;2023-05-24T08:47:30;100434.19;;;29.26;55.07
2268;BME280;11052;43.338;25.502;2023-05-24T08:49:58;100434.47;;;29.15;54.66
2268;BME280;11052;43.338;25.502;2023-05-24T08:52:26;100426.19;;;28.24;55.96
2268;BME280;11052;43.338;25.502;2023-05-24T08:54:57;100428.44;;;27.93;55.60
2268;BME280;11052;43.338;25.502;2023-05-24T08:57:26;100421.03;;;28.22;60.94
2268;BME280;11052;43.338;25.502;2023-05-24T08:59:55;100421.13;;;27.95;56.33
2268;BME280;11052;43.338;25.502;2023-05-24T09:02:23;100419.56;;;28.10;59.09
2268;BME280;11052;43.338;25.502;2023-05-24T09:04:51;100417.38;;;28.23;57.05
2268;BME280;11052;43.338;25.502;2023-05-24T09:07:21;100415.59;;;28.32;58.51
2268;BME280;11052;43.338;25.502;2023-05-24T09:09:57;100413.16;;;28.47;55.67
2268;BME280;11052;43.338;25.502;2023-05-24T09:12:30;100417.19;;;28.85;56.48
2268;BME280;11052;43.338;25.502;2023-05-24T09:14:58;100419.06;;;29.00;55.27
2268;BME280;11052;43.338;25.502;2023-05-24T09:17:25;100420.22;;;28.56;53.04
2268;BME280;11052;43.338;25.502;2023-05-24T09:19:53;100420.75;;;28.59;55.59
2268;BME280;11052;43.338;25.502;2023-05-24T09:22:23;100420.06;;;28.99;61.14
2268;BME280;11052;43.338;25.502;2023-05-24T09:24:50;100422.81;;;29.24;56.63
2268;BME280;11052;43.338;25.502;2023-05-24T09:27:20;100416.03;;;29.86;59.76
2268;BME280;11052;43.338;25.502;2023-05-24T09:29:48;100419.56;;;29.79;54.01
2268;BME280;11052;43.338;25.502;2023-05-24T09:32:17;100418.53;;;29.96;56.53
2268;BME280;11052;43.338;25.502;2023-05-24T09:34:45;100417.03;;;30.18;57.78
2268;BME280;11052;43.338;25.502;2023-05-24T09:37:14;100417.88;;;30.18;55.21
2268;BME280;11052;43.338;25.502;2023-05-24T09:39:42;100422.13;;;30.52;56.34
2268;BME280;11052;43.338;25.502;2023-05-24T09:42:14;100422.63;;;30.63;56.24
2268;BME280;11052;43.338;25.502;2023-05-24T09:44:43;100419.25;;;30.70;52.99
2268;BME280;11052;43.338;25.502;2023-05-24T09:47:11;100417.53;;;30.29;52.69
2268;BME280;11052;43.338;25.502;2023-05-24T09:49:38;100412.38;;;30.12;56.71
2268;BME280;11052;43.338;25.502;2023-05-24T09:52:06;100416.56;;;30.06;57.19
2268;BME280;11052;43.338;25.502;2023-05-24T09:54:33;100415.03;;;30.28;57.15
2268;BME280;11052;43.338;25.502;2023-05-24T09:57:02;100418.34;;;30.30;57.39
2268;BME280;11052;43.338;25.502;2023-05-24T09:59:31;100414.22;;;30.75;56.49
2268;BME280;11052;43.338;25.502;2023-05-24T10:02:08;100421.78;;;31.02;58.64
2268;BME280;11052;43.338;25.502;2023-05-24T10:04:36;100408.34;;;30.79;52.78
2268;BME280;11052;43.338;25.502;2023-05-24T10:07:04;100397.69;;;30.55;55.13
2268;BME280;11052;43.338;25.502;2023-05-24T10:09:32;100407.34;;;31.11;54.27
2268;BME280;11052;43.338;25.502;2023-05-24T10:12:04;100401.84;;;31.05;56.55
2268;BME280;11052;43.338;25.502;2023-05-24T10:14:34;100396.31;;;30.75;53.33
2268;BME280;11052;43.338;25.502;2023-05-24T10:17:02;100393.66;;;31.06;53.77
2268;BME280;11052;43.338;25.502;2023-05-24T10:19:31;100398.25;;;30.34;50.28
2268;BME280;11052;43.338;25.502;2023-05-24T10:21:59;100384.47;;;30.14;50.63
2268;BME280;11052;43.338;25.502;2023-05-24T10:24:31;100389.84;;;30.61;56.72
2268;BME280;11052;43.338;25.502;2023-05-24T10:27:01;100390.25;;;30.81;57.09
2268;BME280;11052;43.338;25.502;2023-05-24T10:29:43;100383.63;;;31.00;54.19
2268;BME280;11052;43.338;25.502;2023-05-24T10:32:17;100391.19;;;30.96;50.56
2268;BME280;11052;43.338;25.502;2023-05-24T10:34:47;100382.81;;;31.00;53.91
2268;BME280;11052;43.338;25.502;2023-05-24T10:37:16;100380.53;;;31.19;54.41
2268;BME280;11052;43.338;25.502;2023-05-24T10:39:43;100374.50;;;31.63;54.51
2268;BME280;11052;43.338;25.502;2023-05-24T10:42:11;100372.81;;;31.62;48.36
2268;BME280;11052;43.338;25.502;2023-05-24T10:44:39;100372.78;;;31.70;51.59
2268;BME280;11052;43.338;25.502;2023-05-24T10:47:08;100374.56;;;31.78;50.81
2268;BME280;11052;43.338;25.502;2023-05-24T10:49:36;100367.16;;;31.57;48.43
2268;BME280;11052;43.338;25.502;2023-05-24T10:52:09;100374.19;;;31.58;52.21
2268;BME280;11052;43.338;25.502;2023-05-24T10:54:37;100362.38;;;31.67;51.11
2268;BME280;11052;43.338;25.502;2023-05-24T10:57:05;100354.50;;;31.74;49.67
2268;BME280;11052;43.338;25.502;2023-05-24T10:59:34;100348.75;;;31.77;48.28
2268;BME280;11052;43.338;25.502;2023-05-24T11:02:06;100346.91;;;31.54;45.88
2268;BME280;11052;43.338;25.502;2023-05-24T11:04:39;100343.25;;;31.10;46.22
2268;BME280;11052;43.338;25.502;2023-05-24T11:07:09;100342.03;;;30.89;47.50
2268;BME280;11052;43.338;25.502;2023-05-24T11:09:38;100331.41;;;30.73;48.35
2268;BME280;11052;43.338;25.502;2023-05-24T11:12:13;100337.97;;;30.62;48.21
2268;BME280;11052;43.338;25.502;2023-05-24T11:14:46;100331.94;;;30.69;48.91
2268;BME280;11052;43.338;25.502;2023-05-24T11:17:13;100325.94;;;30.19;47.91
2268;BME280;11052;43.338;25.502;2023-05-24T11:19:45;100326.91;;;30.26;48.78
2268;BME280;11052;43.338;25.502;2023-05-24T11:22:14;100330.66;;;29.93;49.20
2268;BME280;11052;43.338;25.502;2023-05-24T11:24:42;100321.06;;;30.31;50.10
2268;BME280;11052;43.338;25.502;2023-05-24T11:27:11;100322.59;;;30.17;47.80
2268;BME280;11052;43.338;25.502;2023-05-24T11:29:42;100319.41;;;30.22;47.00
2268;BME280;11052;43.338;25.502;2023-05-24T11:32:13;100320.25;;;30.22;48.47
2268;BME280;11052;43.338;25.502;2023-05-24T11:34:41;100313.38;;;30.28;48.76
2268;BME280;11052;43.338;25.502;2023-05-24T11:37:10;100309.16;;;30.73;50.77
2268;BME280;11052;43.338;25.502;2023-05-24T11:39:39;100313.41;;;30.59;48.56
2268;BME280;11052;43.338;25.502;2023-05-24T11:42:07;100311.53;;;30.68;48.36
2268;BME280;11052;43.338;25.502;2023-05-24T11:44:35;100309.09;;;30.42;47.72
2268;BME280;11052;43.338;25.502;2023-05-24T11:47:05;100301.44;;;30.39;48.69
2268;BME280;11052;43.338;25.502;2023-05-24T11:49:32;100307.34;;;30.65;49.77
2268;BME280;11052;43.338;25.502;2023-05-24T11:52:00;100303.00;;;30.64;49.17
2268;BME280;11052;43.338;25.502;2023-05-24T11:54:29;100296.38;;;30.83;49.99
2268;BME280;11052;43.338;25.502;2023-05-24T11:56:59;100304.22;;;30.84;50.18
2268;BME280;11052;43.338;25.502;2023-05-24T11:59:27;100293.56;;;30.76;52.46
2268;BME280;11052;43.338;25.502;2023-05-24T12:01:59;100288.56;;;30.73;50.33
2268;BME280;11052;43.338;25.502;2023-05-24T12:04:27;100282.59;;;30.94;49.43
2268;BME280;11052;43.338;25.502;2023-05-24T12:06:55;100295.91;;;30.79;49.35
2268;BME280;11052;43.338;25.502;2023-05-24T12:09:23;100295.69;;;30.50;51.31
2268;BME280;11052;43.338;25.502;2023-05-24T12:11:51;100282.31;;;30.19;49.52
2268;BME280;11052;43.338;25.502;2023-05-24T12:14:23;100280.94;;;30.31;49.28
2268;BME280;11052;43.338;25.502;2023-05-24T12:16:53;100280.38;;;30.36;51.29
2268;BME280;11052;43.338;25.502;2023-05-24T12:19:22;100278.97;;;30.17;50.65
2268;BME280;11052;43.338;25.502;2023-05-24T12:21:54;100265.41;;;30.26;51.28
2268;BME280;11052;43.338;25.502;2023-05-24T12:24:22;100271.13;;;30.15;51.07
2268;BME280;11052;43.338;25.502;2023-05-24T12:26:50;100269.00;;;30.03;52.16
2268;BME280;11052;43.338;25.502;2023-05-24T12:29:19;100267.56;;;29.67;51.08
2268;BME280;11052;43.338;25.502;2023-05-24T12:31:47;100272.88;;;29.84;51.83
2268;BME280;11052;43.338;25.502;2023-05-24T12:34:16;100262.66;;;29.95;51.83
2268;BME280;11052;43.338;25.502;2023-05-24T12:36:44;100256.63;;;30.02;50.01
2268;BME280;11052;43.338;25.502;2023-05-24T12:39:19;100256.19;;;29.65;49.87
2268;BME280;11052;43.338;25.502;2023-05-24T12:41:50;100253.25;;;29.36;50.93
2268;BME280;11052;43.338;25.502;2023-05-24T12:44:22;100251.56;;;29.51;52.81
2268;BME280;11052;43.338;25.502;2023-05-24T12:46:52;100247.53;;;29.63;52.81
2268;BME280;11052;43.338;25.502;2023-05-24T12:49:20;100240.31;;;29.72;52.47
2268;BME280;11052;43.338;25.502;2023-05-24T12:51:48;100245.91;;;29.46;53.22
2268;BME280;11052;43.338;25.502;2023-05-24T12:54:17;100244.53;;;29.50;51.40